Time;durP1;ratioP1;P1;durP2;ratioP2;P2;SDS_P1;SDS_P2;PMS_P1;PMS_P2;Temp;Humidity;BMP_temperature;BMP_pressure;BME280_temperature;BME280_humidity;BME280_pressure;Samples;Min_cycle;Max_cycle;Signal;HPM_P1;HPM_P2
2022/07/17 00:01:17;;;;;;;3.95;1.27;;;11.80;49.00;;;;;;5051496;28;20072;-52
2022/07/17 00:03:42;;;;;;;1.58;0.57;;;11.80;49.50;;;;;;5068133;28;20056;-53
2022/07/17 00:06:08;;;;;;;2.05;0.80;;;11.70;50.00;;;;;;5050951;28;20112;-51
2022/07/17 00:08:34;;;;;;;2.33;0.95;;;11.60;50.70;;;;;;5067986;28;20017;-53
2022/07/17 00:11:01;;;;;;;2.22;0.75;;;11.60;50.60;;;;;;5050884;28;20082;-48
2022/07/17 00:13:27;;;;;;;2.13;0.80;;;11.50;51.80;;;;;;5063166;28;20123;-51
2022/07/17 00:15:52;;;;;;;1.10;0.63;;;11.50;52.10;;;;;;5070211;28;20112;-50
2022/07/17 00:18:18;;;;;;;1.90;1.00;;;11.50;52.20;;;;;;5054642;28;20032;-47
2022/07/17 00:20:43;;;;;;;1.35;0.73;;;11.40;52.80;;;;;;5068818;28;20032;-49
2022/07/17 00:23:09;;;;;;;1.83;0.77;;;11.30;53.00;;;;;;5052551;28;20048;-50
2022/07/17 00:25:35;;;;;;;4.00;1.05;;;11.30;54.00;;;;;;5070170;28;20103;-50
2022/07/17 00:28:01;;;;;;;2.30;0.68;;;11.30;53.80;;;;;;5051470;28;20115;-54
2022/07/17 00:30:27;;;;;;;1.73;0.90;;;11.20;54.70;;;;;;5057669;28;20057;-48
2022/07/17 00:32:53;;;;;;;1.70;0.73;;;11.20;55.20;;;;;;5067294;28;20033;-51
2022/07/17 00:35:19;;;;;;;4.35;0.93;;;11.10;55.50;;;;;;5070015;28;20501;-47
2022/07/17 00:37:46;;;;;;;1.67;0.80;;;11.10;56.50;;;;;;5048557;28;20029;-47
2022/07/17 00:40:16;;;;;;;3.33;1.20;;;11.10;56.80;;;;;;5069615;28;20508;-53
2022/07/17 00:42:42;;;;;;;1.58;1.00;;;11.00;58.90;;;;;;5049743;28;20031;-53
2022/07/17 00:45:09;;;;;;;4.18;1.00;;;11.00;59.10;;;;;;5067520;28;20028;-47
2022/07/17 00:47:52;;;;;;;3.42;0.90;;;11.00;58.80;;;;;;5050076;28;20025;-51
2022/07/17 00:50:17;;;;;;;2.53;0.80;;;10.90;59.40;;;;;;5029921;28;20057;-50
2022/07/17 00:52:44;;;;;;;6.18;1.50;;;10.90;60.70;;;;;;5068139;28;20504;-52
2022/07/17 00:55:11;;;;;;;3.92;0.95;;;10.90;61.00;;;;;;5067765;28;20241;-50
2022/07/17 00:57:40;;;;;;;2.85;1.10;;;10.90;60.20;;;;;;5049569;28;20576;-51
2022/07/17 01:00:09;;;;;;;5.38;1.20;;;10.90;61.00;;;;;;5048121;28;20044;-49
2022/07/17 01:02:35;;;;;;;3.35;1.30;;;10.80;65.00;;;;;;5069069;28;20374;-48
2022/07/17 01:05:01;;;;;;;4.03;0.98;;;10.80;63.70;;;;;;5048158;28;20082;-54
2022/07/17 01:07:26;;;;;;;1.63;0.93;;;10.80;63.70;;;;;;5068498;28;20036;-52
2022/07/17 01:09:52;;;;;;;3.17;1.15;;;10.80;62.90;;;;;;5047871;28;20098;-50
2022/07/17 01:12:18;;;;;;;7.25;1.40;;;10.80;63.50;;;;;;5068444;28;20036;-48
2022/07/17 01:14:44;;;;;;;1.55;0.70;;;10.70;63.70;;;;;;5042313;28;20040;-52
2022/07/17 01:17:10;;;;;;;3.88;1.27;;;10.70;64.40;;;;;;5068446;28;20455;-51
2022/07/17 01:19:36;;;;;;;2.42;1.05;;;10.70;63.80;;;;;;5047658;28;20061;-48
2022/07/17 01:22:01;;;;;;;3.40;0.93;;;10.60;63.90;;;;;;5068321;28;20117;-53
2022/07/17 01:24:27;;;;;;;5.93;1.08;;;10.60;64.00;;;;;;5047728;28;20138;-51
2022/07/17 01:26:52;;;;;;;6.30;1.02;;;10.50;65.20;;;;;;5068084;28;20029;-51
2022/07/17 01:29:18;;;;;;;2.72;0.93;;;10.50;65.80;;;;;;5049811;28;20124;-50
2022/07/17 01:31:44;;;;;;;2.58;1.00;;;10.50;65.90;;;;;;5068845;28;20060;-54
2022/07/17 01:34:12;;;;;;;2.53;0.73;;;10.40;66.30;;;;;;5057676;28;20043;-52
2022/07/17 01:36:38;;;;;;;3.88;0.88;;;10.40;67.00;;;;;;5048871;28;20025;-47
2022/07/17 01:39:04;;;;;;;2.78;1.23;;;10.40;67.60;;;;;;5066380;28;20380;-49
2022/07/17 01:41:30;;;;;;;2.05;1.17;;;10.30;67.50;;;;;;5049101;28;20029;-49
2022/07/17 01:43:56;;;;;;;3.53;1.00;;;10.30;69.20;;;;;;5065898;28;20039;-50
2022/07/17 01:46:22;;;;;;;5.22;1.02;;;10.30;68.90;;;;;;5049198;28;20037;-48
2022/07/17 01:48:48;;;;;;;3.00;0.82;;;10.20;68.50;;;;;;5066098;28;20039;-63
2022/07/17 01:51:13;;;;;;;3.15;1.30;;;10.20;69.10;;;;;;5068576;28;20252;-62
2022/07/17 01:53:39;;;;;;;1.73;0.88;;;10.10;70.70;;;;;;5052641;28;20286;-63
2022/07/17 01:56:04;;;;;;;3.25;1.08;;;10.10;71.10;;;;;;5068635;28;20446;-62
2022/07/17 01:58:30;;;;;;;2.47;1.05;;;10.10;70.70;;;;;;5051359;28;20388;-62
2022/07/17 02:00:55;;;;;;;1.27;0.80;;;10.00;72.20;;;;;;5067171;28;20024;-62
2022/07/17 02:03:21;;;;;;;3.53;1.10;;;10.00;73.00;;;;;;5048472;28;20036;-63
2022/07/17 02:05:47;;;;;;;2.97;1.13;;;9.90;71.60;;;;;;5068798;28;20036;-63
2022/07/17 02:08:12;;;;;;;6.25;0.90;;;9.90;72.70;;;;;;5048757;28;20036;-63
2022/07/17 02:10:38;;;;;;;2.90;0.95;;;9.80;72.60;;;;;;5067222;28;20613;-63
2022/07/17 02:13:04;;;;;;;5.38;1.02;;;9.80;72.70;;;;;;5050502;28;20382;-62
2022/07/17 02:15:30;;;;;;;2.67;0.82;;;9.70;72.90;;;;;;5049438;28;20087;-62
2022/07/17 02:17:55;;;;;;;1.88;1.20;;;9.70;73.20;;;;;;5071697;28;20036;-63
2022/07/17 02:20:21;;;;;;;5.00;1.45;;;9.60;73.20;;;;;;5050994;28;20028;-62
2022/07/17 02:22:47;;;;;;;4.70;1.13;;;9.60;73.60;;;;;;5071738;28;20516;-62
2022/07/17 02:25:13;;;;;;;2.20;1.15;;;9.60;74.40;;;;;;5050877;28;20033;-63
2022/07/17 02:27:39;;;;;;;4.88;1.08;;;9.50;73.70;;;;;;5071659;28;20396;-62
2022/07/17 02:30:08;;;;;;;2.90;1.15;;;9.50;75.40;;;;;;5059559;28;20053;-62
2022/07/17 02:32:33;;;;;;;3.25;1.33;;;9.40;74.40;;;;;;5052292;28;20053;-62
2022/07/17 02:34:59;;;;;;;3.25;1.40;;;9.40;75.20;;;;;;5053932;28;20091;-63
2022/07/17 02:37:24;;;;;;;3.95;1.35;;;9.30;75.30;;;;;;5071274;28;20455;-62
2022/07/17 02:39:53;;;;;;;6.15;1.63;;;9.30;75.60;;;;;;5049441;28;20049;-62
2022/07/17 02:42:22;;;;;;;2.20;1.58;;;9.20;76.20;;;;;;5071662;28;20078;-63
2022/07/17 02:44:48;;;;;;;2.97;1.40;;;9.10;76.40;;;;;;5050620;28;20017;-63
2022/07/17 02:47:24;;;;;;;3.95;1.42;;;9.10;77.60;;;;;;5071039;28;20116;-62
2022/07/17 02:49:51;;;;;;;4.50;1.42;;;9.10;77.60;;;;;;5044066;28;20037;-63
2022/07/17 02:52:17;;;;;;;6.03;1.42;;;9.00;78.40;;;;;;5071279;28;20036;-63
2022/07/17 02:54:43;;;;;;;6.75;2.03;;;9.00;78.60;;;;;;5050402;28;20029;-63
2022/07/17 02:57:08;;;;;;;2.80;1.30;;;9.00;79.10;;;;;;5070825;28;20040;-63
2022/07/17 02:59:34;;;;;;;3.38;1.20;;;8.90;79.40;;;;;;5050469;28;20501;-64
2022/07/17 03:01:59;;;;;;;2.45;1.30;;;8.90;79.50;;;;;;5070938;28;20373;-63
2022/07/17 03:07:47;;;;;;;2.17;1.17;;;8.80;80.10;;;;;;5032212;28;20574;-63
2022/07/17 03:10:14;;;;;;;4.30;1.33;;;8.80;80.90;;;;;;5051655;28;20060;-63
2022/07/17 03:12:40;;;;;;;3.80;1.40;;;8.70;80.50;;;;;;5070852;28;20078;-63
2022/07/17 03:15:06;;;;;;;4.65;1.40;;;8.70;82.00;;;;;;5042308;28;20021;-63
2022/07/17 03:17:32;;;;;;;6.47;1.60;;;8.70;82.10;;;;;;5070676;28;20032;-63
2022/07/17 03:19:57;;;;;;;3.50;1.30;;;8.70;82.90;;;;;;5050057;28;20111;-63
2022/07/17 03:22:23;;;;;;;5.25;1.30;;;8.70;83.10;;;;;;5070285;28;20068;-63
2022/07/17 03:24:49;;;;;;;1.80;1.10;;;8.70;83.50;;;;;;5050163;28;20025;-62
2022/07/17 03:27:14;;;;;;;3.55;1.35;;;8.70;84.20;;;;;;5070574;28;20083;-63
2022/07/17 03:29:40;;;;;;;2.00;1.55;;;8.70;84.00;;;;;;5054943;28;20432;-63
2022/07/17 03:32:05;;;;;;;6.57;1.58;;;8.70;83.70;;;;;;5071043;28;20036;-63
2022/07/17 03:34:31;;;;;;;3.40;1.30;;;8.70;83.80;;;;;;5059661;28;20115;-63
2022/07/17 03:36:56;;;;;;;4.88;1.20;;;8.70;84.50;;;;;;5051434;28;20040;-63
2022/07/17 03:39:22;;;;;;;2.50;1.38;;;8.80;85.10;;;;;;5068048;28;20063;-63
2022/07/17 03:41:47;;;;;;;3.65;1.30;;;8.80;84.80;;;;;;5051554;28;20021;-63
2022/07/17 03:44:13;;;;;;;2.63;1.00;;;8.80;85.30;;;;;;5068066;28;20241;-63
2022/07/17 03:46:39;;;;;;;4.35;1.67;;;8.80;85.50;;;;;;5070872;28;20473;-63
2022/07/17 03:49:05;;;;;;;1.63;1.20;;;8.90;85.30;;;;;;5055410;28;20059;-63
2022/07/17 03:51:30;;;;;;;5.32;1.27;;;8.90;84.60;;;;;;5070788;28;20036;-63
2022/07/17 03:53:56;;;;;;;3.88;1.38;;;9.00;85.00;;;;;;5053800;28;20132;-63
2022/07/17 03:56:21;;;;;;;4.68;1.30;;;9.30;85.40;;;;;;5070614;28;20024;-63
2022/07/17 03:58:47;;;;;;;2.72;1.38;;;10.00;84.80;;;;;;5052685;28;20025;-63
2022/07/17 04:01:12;;;;;;;2.08;1.05;;;10.90;80.90;;;;;;5070505;28;20028;-63
2022/07/17 04:03:38;;;;;;;2.88;0.95;;;11.80;76.00;;;;;;5050829;28;20423;-63
2022/07/17 04:06:03;;;;;;;3.40;0.95;;;12.70;70.80;;;;;;5070598;28;20035;-62
2022/07/17 04:08:29;;;;;;;2.15;0.85;;;13.50;66.30;;;;;;5049258;28;20083;-63
2022/07/17 04:10:55;;;;;;;4.13;1.17;;;14.30;62.30;;;;;;5070397;28;20016;-64
2022/07/17 04:13:20;;;;;;;2.60;1.00;;;15.10;59.60;;;;;;5050787;28;20031;-63
2022/07/17 04:15:49;;;;;;;3.97;1.20;;;15.80;55.10;;;;;;5049356;28;20120;-65
2022/07/17 04:18:15;;;;;;;3.17;0.90;;;16.50;53.80;;;;;;5070042;28;20059;-63
2022/07/17 04:20:41;;;;;;;2.55;0.93;;;17.20;50.10;;;;;;5048964;28;20032;-63
2022/07/17 04:23:06;;;;;;;2.42;1.20;;;17.90;48.60;;;;;;5069115;28;20037;-62
2022/07/17 04:25:32;;;;;;;4.18;1.05;;;18.50;46.20;;;;;;5048892;28;20029;-63
2022/07/17 04:27:57;;;;;;;1.75;1.00;;;19.00;43.50;;;;;;5069193;28;20119;-63
2022/07/17 04:30:23;;;;;;;1.02;0.80;;;19.70;40.70;;;;;;5048372;28;20049;-63
2022/07/17 04:32:49;;;;;;;1.80;0.90;;;20.30;39.10;;;;;;5069372;28;20123;-63
2022/07/17 04:35:14;;;;;;;1.60;0.80;;;20.80;36.50;;;;;;5048046;28;20100;-63
2022/07/17 04:37:40;;;;;;;1.00;0.80;;;21.30;34.20;;;;;;5068905;28;20320;-63
2022/07/17 04:40:06;;;;;;;2.30;0.93;;;21.70;31.30;;;;;;5048399;28;20510;-63
2022/07/17 04:42:32;;;;;;;3.85;1.08;;;22.30;29.80;;;;;;5069331;28;20029;-63
2022/07/17 04:44:58;;;;;;;4.05;1.05;;;22.70;27.80;;;;;;5048349;28;20378;-63
2022/07/17 04:47:24;;;;;;;4.80;1.10;;;23.10;26.80;;;;;;5069135;28;20325;-63
2022/07/17 04:49:49;;;;;;;1.60;0.98;;;23.60;25.30;;;;;;5058800;28;20290;-62
2022/07/17 04:52:15;;;;;;;2.20;0.88;;;23.90;23.00;;;;;;5050030;28;20025;-62
2022/07/17 04:54:40;;;;;;;2.17;0.80;;;24.10;21.70;;;;;;5066712;28;20484;-62
2022/07/17 04:57:06;;;;;;;2.88;1.10;;;24.50;19.90;;;;;;5049887;28;20499;-62
2022/07/17 04:59:32;;;;;;;1.95;1.23;;;24.90;18.70;;;;;;5066834;28;20055;-63
2022/07/17 05:01:57;;;;;;;2.08;0.93;;;25.30;16.70;;;;;;5049746;28;20108;-63
2022/07/17 05:04:23;;;;;;;1.95;0.90;;;25.40;13.10;;;;;;5066378;28;20044;-63
2022/07/17 05:06:48;;;;;;;2.78;1.00;;;25.30;14.30;;;;;;5068125;28;20020;-62
2022/07/17 05:09:14;;;;;;;2.22;0.63;;;25.30;13.70;;;;;;5052714;28;20093;-63
2022/07/17 05:11:39;;;;;;;1.40;0.80;;;25.60;13.30;;;;;;5069100;28;20030;-63
2022/07/17 05:14:05;;;;;;;1.25;0.63;;;25.70;11.80;;;;;;5047758;28;20032;-62
2022/07/17 05:16:31;;;;;;;2.35;0.70;;;26.20;11.70;;;;;;5049204;28;20021;-62
2022/07/17 05:18:56;;;;;;;2.05;0.85;;;26.60;10.10;;;;;;5066292;28;20025;-62
2022/07/17 05:21:21;;;;;;;5.28;1.15;;;27.00;8.90;;;;;;5068881;28;20039;-62
2022/07/17 05:23:47;;;;;;;2.03;0.82;;;27.30;8.20;;;;;;5048598;28;20403;-62
2022/07/17 05:26:12;;;;;;;1.30;0.60;;;27.60;7.30;;;;;;5068908;28;20075;-62
2022/07/17 05:28:38;;;;;;;1.70;0.82;;;27.80;6.10;;;;;;5049327;28;20028;-62
2022/07/17 05:31:04;;;;;;;1.48;0.88;;;28.20;5.50;;;;;;5066578;28;20037;-61
2022/07/17 05:33:29;;;;;;;2.45;1.00;;;28.30;4.90;;;;;;5049199;28;20385;-62
2022/07/17 05:35:54;;;;;;;4.35;1.40;;;28.40;4.70;;;;;;5048115;28;20018;-62
2022/07/17 05:38:20;;;;;;;2.58;1.15;;;28.60;3.60;;;;;;5067910;28;20032;-62
2022/07/17 05:40:45;;;;;;;1.02;0.63;;;28.70;2.90;;;;;;5047555;28;20106;-63
2022/07/17 05:43:11;;;;;;;3.40;1.10;;;28.50;2.70;;;;;;5067704;28;20481;-63
2022/07/17 05:45:38;;;;;;;2.30;0.85;;;28.30;2.50;;;;;;5047362;28;20039;-62
2022/07/17 05:48:05;;;;;;;2.33;1.00;;;28.10;2.30;;;;;;5067398;28;20016;-62
2022/07/17 05:50:31;;;;;;;2.55;0.88;;;27.50;2.80;;;;;;5047204;28;20056;-63
2022/07/17 05:52:57;;;;;;;1.45;0.70;;;27.20;2.90;;;;;;5067697;28;20403;-63
2022/07/17 05:55:22;;;;;;;2.08;0.75;;;26.70;3.10;;;;;;5047153;28;20033;-63
2022/07/17 05:57:48;;;;;;;2.58;0.90;;;26.20;3.10;;;;;;5068120;28;20115;-62
2022/07/17 06:00:13;;;;;;;3.15;0.82;;;25.80;3.40;;;;;;5047006;28;20123;-63
2022/07/17 06:02:39;;;;;;;3.28;1.10;;;25.90;3.20;;;;;;5067493;28;20264;-62
2022/07/17 06:05:05;;;;;;;1.20;0.90;;;26.10;2.10;;;;;;5057538;28;20039;-62
2022/07/17 06:07:30;;;;;;;2.80;0.80;;;26.80;1.90;;;;;;5048855;28;20029;-63
2022/07/17 06:09:56;;;;;;;5.57;1.00;;;28.30;1.00;;;;;;5065715;28;20564;-63
2022/07/17 06:12:21;;;;;;;3.65;0.90;;;29.40;1.00;;;;;;5048747;28;20472;-63
2022/07/17 06:14:47;;;;;;;1.15;0.80;;;29.30;1.00;;;;;;5062338;28;20024;-64
2022/07/17 06:17:13;;;;;;;2.88;1.08;;;29.20;1.00;;;;;;5048635;28;20029;-61
2022/07/17 06:19:39;;;;;;;3.70;0.85;;;30.00;1.00;;;;;;5065684;28;20392;-62
2022/07/17 06:22:04;;;;;;;3.20;1.10;;;30.90;1.00;;;;;;5068390;28;20089;-62
2022/07/17 06:24:30;;;;;;;3.72;0.73;;;31.30;1.00;;;;;;5052003;28;20036;-63
2022/07/17 06:26:55;;;;;;;5.13;0.90;;;31.30;1.00;;;;;;5068179;28;20511;-62
2022/07/17 06:29:21;;;;;;;2.60;1.27;;;30.60;1.00;;;;;;5050447;28;20060;-62
2022/07/17 06:31:46;;;;;;;3.17;0.90;;;29.80;1.00;;;;;;5068322;28;20039;-62
2022/07/17 06:34:12;;;;;;;2.10;0.88;;;29.40;1.00;;;;;;5048999;28;20033;-62
2022/07/17 06:36:37;;;;;;;1.88;0.80;;;28.80;1.00;;;;;;5068107;28;20383;-62
2022/07/17 06:39:03;;;;;;;4.03;1.08;;;28.50;1.00;;;;;;5047851;28;20037;-61
2022/07/17 06:41:28;;;;;;;3.67;1.13;;;27.70;1.00;;;;;;5068005;28;20434;-63
2022/07/17 06:43:53;;;;;;;2.28;1.10;;;26.70;1.00;;;;;;5048372;28;20253;-63
2022/07/17 06:46:19;;;;;;;2.17;1.17;;;26.10;1.00;;;;;;5065899;28;20450;-63
2022/07/17 06:48:44;;;;;;;3.65;1.00;;;26.00;1.00;;;;;;5048552;28;20033;-63
2022/07/17 06:51:10;;;;;;;2.58;0.98;;;25.90;1.00;;;;;;5047263;28;20082;-62
2022/07/17 06:53:35;;;;;;;3.25;0.75;;;25.70;1.00;;;;;;5067180;28;20060;-63
2022/07/17 06:56:01;;;;;;;1.50;0.70;;;26.00;1.00;;;;;;5046746;28;20025;-63
2022/07/17 06:58:26;;;;;;;2.72;0.88;;;26.40;1.00;;;;;;5068742;28;20031;-63
2022/07/17 07:00:52;;;;;;;2.38;1.00;;;26.90;1.00;;;;;;5050281;28;20076;-64
2022/07/17 07:03:17;;;;;;;3.25;0.75;;;26.70;1.00;;;;;;5070833;28;20093;-63
2022/07/17 07:05:43;;;;;;;2.47;0.95;;;26.80;1.00;;;;;;5050261;28;20029;-62
2022/07/17 07:08:08;;;;;;;2.00;0.73;;;27.10;1.00;;;;;;5070478;28;20496;-62
2022/07/17 07:10:34;;;;;;;3.70;1.13;;;27.20;1.00;;;;;;5050374;28;20037;-63
2022/07/17 07:12:59;;;;;;;4.38;1.02;;;27.00;1.00;;;;;;5069600;28;20042;-58
2022/07/17 07:15:25;;;;;;;2.33;1.00;;;26.90;1.00;;;;;;5057555;28;20816;-62
2022/07/17 07:17:50;;;;;;;2.47;0.90;;;26.70;1.00;;;;;;5051987;28;20040;-63
2022/07/17 07:20:16;;;;;;;3.10;0.95;;;26.50;1.00;;;;;;5068599;28;20389;-63
2022/07/17 07:22:41;;;;;;;2.85;0.88;;;26.10;1.00;;;;;;5050238;28;20048;-64
2022/07/17 07:25:08;;;;;;;3.47;0.98;;;25.50;1.00;;;;;;5068440;28;20538;-62
2022/07/17 07:27:33;;;;;;;3.80;1.33;;;25.10;1.00;;;;;;5051945;28;20059;-63
2022/07/17 07:29:59;;;;;;;1.77;0.80;;;24.90;1.00;;;;;;5060270;28;20080;-62
2022/07/17 07:32:24;;;;;;;4.50;1.15;;;24.70;1.00;;;;;;5070190;28;20036;-63
2022/07/17 07:34:50;;;;;;;2.35;0.93;;;24.40;1.00;;;;;;5055745;28;20112;-63
2022/07/17 07:37:15;;;;;;;1.63;0.98;;;23.90;1.00;;;;;;5071000;28;20409;-63
2022/07/17 07:39:41;;;;;;;3.83;0.80;;;23.70;1.20;;;;;;5053925;28;20334;-63
2022/07/17 07:42:07;;;;;;;2.00;1.10;;;23.40;1.50;;;;;;5070931;28;20427;-63
2022/07/17 07:44:32;;;;;;;2.30;0.90;;;23.20;1.90;;;;;;5052616;28;20029;-63
2022/07/17 07:46:58;;;;;;;2.85;1.20;;;23.00;2.00;;;;;;5069416;28;20016;-63
2022/07/17 07:49:24;;;;;;;1.15;0.65;;;22.80;2.60;;;;;;5049790;28;20040;-60
2022/07/17 07:51:50;;;;;;;5.15;1.00;;;22.70;2.80;;;;;;5069609;28;20052;-63
2022/07/17 07:54:15;;;;;;;2.38;0.88;;;22.60;2.90;;;;;;5049950;28;20068;-64
2022/07/17 07:56:41;;;;;;;1.05;0.70;;;22.50;3.20;;;;;;5070649;28;20528;-64
2022/07/17 07:59:06;;;;;;;2.20;0.70;;;22.50;3.30;;;;;;5050948;28;20041;-64
2022/07/17 08:01:32;;;;;;;2.30;0.70;;;22.50;3.40;;;;;;5066838;28;20028;-64
2022/07/17 08:03:57;;;;;;;3.15;1.00;;;22.60;3.50;;;;;;5050868;28;20087;-64
2022/07/17 08:06:23;;;;;;;1.55;0.98;;;22.50;3.90;;;;;;5050038;28;20037;-64
2022/07/17 08:08:48;;;;;;;1.10;0.68;;;22.60;3.60;;;;;;5069732;28;20111;-64
2022/07/17 08:11:15;;;;;;;2.60;1.02;;;22.80;3.60;;;;;;5046862;28;20020;-64
2022/07/17 08:13:41;;;;;;;3.45;1.08;;;23.00;3.40;;;;;;5056402;28;20068;-65
2022/07/17 08:16:07;;;;;;;4.32;1.27;;;23.10;3.40;;;;;;5062430;28;20075;-64
2022/07/17 08:18:32;;;;;;;2.63;1.08;;;22.70;4.00;;;;;;5050796;28;20115;-64
2022/07/17 08:20:58;;;;;;;3.25;1.00;;;22.50;4.30;;;;;;5053524;28;20036;-64
2022/07/17 08:23:23;;;;;;;2.92;0.93;;;22.20;4.50;;;;;;5069285;28;20040;-65
2022/07/17 08:25:49;;;;;;;2.38;0.95;;;22.10;4.80;;;;;;5040937;28;20036;-64
2022/07/17 08:28:14;;;;;;;2.67;1.00;;;22.00;5.20;;;;;;5057358;28;20074;-64
2022/07/17 08:30:40;;;;;;;3.60;1.20;;;21.70;5.80;;;;;;5054837;28;20079;-64
2022/07/17 08:33:08;;;;;;;3.80;1.00;;;21.50;6.30;;;;;;5048757;28;20160;-64
2022/07/17 08:35:34;;;;;;;3.25;1.20;;;21.40;6.50;;;;;;5051723;28;20021;-64
2022/07/17 08:38:00;;;;;;;2.58;1.08;;;21.40;6.60;;;;;;5051205;28;20029;-65
2022/07/17 08:40:31;;;;;;;1.90;0.90;;;21.20;7.10;;;;;;5035966;28;20033;-65
2022/07/17 08:42:59;;;;;;;3.65;0.90;;;21.10;7.10;;;;;;5043965;28;20116;-64
2022/07/17 08:45:25;;;;;;;2.28;0.80;;;21.10;7.50;;;;;;5066603;28;20116;-65
2022/07/17 08:47:52;;;;;;;3.28;0.98;;;21.10;7.20;;;;;;5049716;28;20029;-64
2022/07/17 08:50:26;;;;;;;2.58;1.02;;;21.10;7.50;;;;;;5067142;28;20119;-64
2022/07/17 08:52:53;;;;;;;2.22;1.08;;;20.90;8.00;;;;;;5027513;28;20021;-64
2022/07/17 08:55:18;;;;;;;4.72;1.00;;;20.90;7.90;;;;;;5064695;28;20512;-64
2022/07/17 08:57:45;;;;;;;3.42;1.10;;;21.00;8.00;;;;;;5049811;28;20061;-65
2022/07/17 09:00:16;;;;;;;2.15;0.90;;;21.00;8.30;;;;;;5066732;28;20561;-64
2022/07/17 09:02:52;;;;;;;3.45;1.02;;;21.00;8.20;;;;;;5069189;28;20024;-64
2022/07/17 09:05:22;;;;;;;2.67;0.90;;;21.10;8.50;;;;;;5042092;28;20131;-64
2022/07/17 09:07:48;;;;;;;2.10;0.93;;;21.20;8.00;;;;;;5069131;28;20650;-64
2022/07/17 09:10:14;;;;;;;2.20;0.75;;;21.40;8.00;;;;;;5054227;28;20029;-65
2022/07/17 09:12:40;;;;;;;4.53;1.05;;;21.50;7.50;;;;;;5069086;28;20028;-64
2022/07/17 09:15:18;;;;;;;2.75;1.00;;;21.80;7.40;;;;;;5046575;28;20194;-64
2022/07/17 09:17:49;;;;;;;2.17;0.82;;;21.80;7.20;;;;;;5068917;28;20040;-64
2022/07/17 09:20:14;;;;;;;5.78;1.05;;;22.00;7.20;;;;;;5053718;28;20810;-64
2022/07/17 09:22:42;;;;;;;2.30;1.00;;;22.00;7.40;;;;;;5068486;28;20035;-64
2022/07/17 09:25:08;;;;;;;2.00;0.90;;;21.80;7.60;;;;;;5052532;28;20097;-64
2022/07/17 09:27:33;;;;;;;3.35;1.20;;;21.80;7.70;;;;;;5068807;28;20050;-64
2022/07/17 09:30:01;;;;;;;3.25;1.02;;;21.80;7.50;;;;;;5051160;28;20040;-64
2022/07/17 09:32:34;;;;;;;1.63;0.52;;;21.80;7.50;;;;;;5068203;28;20136;-64
2022/07/17 09:35:02;;;;;;;2.67;0.90;;;21.90;7.60;;;;;;5035196;28;20063;-64
2022/07/17 09:37:29;;;;;;;1.13;0.88;;;22.00;7.30;;;;;;5068565;28;20056;-64
2022/07/17 09:39:56;;;;;;;2.20;0.80;;;22.20;7.20;;;;;;5050162;28;20062;-64
2022/07/17 09:42:32;;;;;;;2.97;1.05;;;22.40;7.30;;;;;;5068456;28;20099;-64
2022/07/17 09:44:58;;;;;;;3.25;1.17;;;22.70;6.70;;;;;;5033915;28;20178;-64
2022/07/17 09:47:24;;;;;;;1.70;0.90;;;23.00;7.10;;;;;;5068578;28;20535;-64
2022/07/17 09:49:54;;;;;;;2.45;0.75;;;23.30;6.90;;;;;;5049226;28;20493;-64
2022/07/17 09:52:22;;;;;;;3.53;0.93;;;23.50;6.70;;;;;;5068439;28;20073;-64
2022/07/17 09:54:50;;;;;;;3.15;0.93;;;23.70;6.00;;;;;;5048523;28;20021;-64
2022/07/17 09:57:17;;;;;;;3.13;0.77;;;23.70;5.40;;;;;;5068466;28;20013;-64
2022/07/17 09:59:45;;;;;;;2.83;0.88;;;23.70;4.40;;;;;;5047954;28;20038;-64
2022/07/17 10:02:11;;;;;;;2.90;1.23;;;23.70;4.50;;;;;;5068320;28;20032;-64
2022/07/17 10:04:37;;;;;;;3.22;1.15;;;23.60;4.40;;;;;;5046825;28;20057;-62
2022/07/17 10:07:03;;;;;;;2.17;1.00;;;23.60;4.80;;;;;;5068288;28;20096;-65
2022/07/17 10:09:30;;;;;;;3.85;1.10;;;23.70;4.50;;;;;;5048594;28;20032;-64
2022/07/17 10:11:56;;;;;;;3.05;0.98;;;23.80;4.30;;;;;;5046818;28;20036;-64
2022/07/17 10:14:22;;;;;;;2.75;1.02;;;23.90;4.20;;;;;;5064118;28;20043;-64
2022/07/17 10:16:47;;;;;;;3.85;1.23;;;23.90;4.00;;;;;;5046832;28;20040;-64
2022/07/17 10:19:24;;;;;;;1.45;0.68;;;23.90;4.10;;;;;;5067445;28;20168;-64
2022/07/17 10:21:59;;;;;;;3.97;1.00;;;24.00;3.90;;;;;;5044372;28;20033;-64
2022/07/17 10:24:26;;;;;;;0.80;0.70;;;24.10;3.70;;;;;;5028131;28;20034;-64
2022/07/17 10:26:52;;;;;;;3.50;1.10;;;24.10;3.40;;;;;;5047300;28;20048;-64
2022/07/17 10:29:26;;;;;;;1.92;1.10;;;24.00;3.20;;;;;;5064625;28;20131;-64
2022/07/17 10:31:52;;;;;;;4.35;1.20;;;24.00;3.30;;;;;;5046369;28;20112;-64
2022/07/17 10:34:22;;;;;;;3.08;1.10;;;24.10;3.40;;;;;;5070399;28;20504;-64
2022/07/17 10:36:47;;;;;;;2.42;1.05;;;24.20;3.30;;;;;;5050114;28;20533;-64
2022/07/17 10:39:22;;;;;;;2.53;1.23;;;24.30;3.30;;;;;;5071198;28;20309;-64
2022/07/17 10:41:59;;;;;;;2.00;0.95;;;24.30;2.80;;;;;;5050700;28;20099;-64
2022/07/17 10:44:27;;;;;;;4.72;1.38;;;24.40;2.70;;;;;;5071448;28;20101;-64
2022/07/17 10:46:53;;;;;;;1.98;1.05;;;24.40;2.40;;;;;;5050446;28;20060;-64
2022/07/17 10:49:19;;;;;;;1.38;0.70;;;24.40;2.00;;;;;;5071001;28;20044;-64
2022/07/17 10:51:45;;;;;;;3.45;1.05;;;24.40;2.20;;;;;;5050281;28;20032;-64
2022/07/17 10:54:11;;;;;;;3.20;1.15;;;24.30;1.70;;;;;;5071133;28;20056;-64
2022/07/17 10:56:40;;;;;;;1.85;1.05;;;24.10;2.00;;;;;;5050394;28;20091;-64
2022/07/17 10:59:06;;;;;;;3.10;1.00;;;24.00;2.50;;;;;;5071363;28;20074;-64
2022/07/17 11:01:32;;;;;;;2.08;0.95;;;23.90;2.60;;;;;;5050295;28;20032;-64
2022/07/17 11:04:00;;;;;;;2.10;1.13;;;23.80;3.00;;;;;;5070750;28;20078;-64
2022/07/17 11:06:30;;;;;;;1.58;0.95;;;23.80;2.80;;;;;;5049810;28;20028;-64
2022/07/17 11:09:08;;;;;;;2.45;1.02;;;23.70;3.50;;;;;;5070910;28;20039;-64
2022/07/17 11:11:40;;;;;;;3.15;1.20;;;23.60;3.20;;;;;;5049719;28;20025;-64
2022/07/17 11:14:18;;;;;;;2.75;1.10;;;23.50;3.50;;;;;;5054690;28;20053;-65
2022/07/17 11:16:50;;;;;;;3.05;1.25;;;23.30;4.10;;;;;;5045144;28;20020;-64
2022/07/17 11:19:25;;;;;;;8.35;1.42;;;23.10;4.20;;;;;;5031367;28;20061;-64
2022/07/17 11:21:51;;;;;;;3.30;1.17;;;23.00;4.50;;;;;;5052268;28;20071;-64
2022/07/17 11:24:17;;;;;;;2.78;1.20;;;22.90;4.80;;;;;;5069012;28;20404;-65
2022/07/17 11:26:46;;;;;;;2.03;1.33;;;22.80;5.00;;;;;;5050010;28;20048;-65
2022/07/17 11:29:14;;;;;;;3.15;1.25;;;22.70;4.70;;;;;;5068994;28;20119;-64
2022/07/17 11:31:40;;;;;;;3.20;0.90;;;22.60;4.30;;;;;;5049344;28;20048;-64
2022/07/17 11:34:09;;;;;;;3.13;1.15;;;22.50;4.50;;;;;;5070257;28;20025;-64
2022/07/17 11:36:35;;;;;;;5.95;1.27;;;22.30;5.00;;;;;;5049536;28;20237;-65
2022/07/17 11:39:04;;;;;;;3.33;0.80;;;22.30;5.10;;;;;;5070533;28;20040;-64
2022/07/17 11:41:32;;;;;;;2.45;0.90;;;22.30;5.20;;;;;;5049075;28;20071;-64
2022/07/17 11:43:58;;;;;;;2.33;0.90;;;22.30;5.10;;;;;;5069607;28;20044;-64
2022/07/17 11:46:26;;;;;;;2.47;1.60;;;22.30;5.10;;;;;;5048620;28;20022;-64
2022/07/17 11:48:52;;;;;;;1.90;1.00;;;22.30;5.00;;;;;;5070289;28;20035;-64
2022/07/17 11:51:18;;;;;;;3.75;0.85;;;22.30;5.20;;;;;;5049461;28;20029;-64
2022/07/17 11:53:43;;;;;;;4.68;1.17;;;22.30;4.90;;;;;;5069910;28;20024;-64
2022/07/17 11:56:19;;;;;;;2.22;1.05;;;22.20;4.90;;;;;;5058787;28;20021;-64
2022/07/17 11:58:46;;;;;;;3.35;1.10;;;22.10;5.40;;;;;;5031138;28;20022;-65
2022/07/17 12:01:13;;;;;;;2.20;0.98;;;22.10;4.80;;;;;;5067640;28;20082;-65
2022/07/17 12:03:39;;;;;;;2.72;1.15;;;22.20;4.80;;;;;;5050758;28;20515;-64
2022/07/17 12:06:05;;;;;;;2.28;0.95;;;22.30;4.70;;;;;;5068054;28;20107;-64
2022/07/17 12:08:31;;;;;;;3.00;1.10;;;22.30;5.00;;;;;;5050608;28;20035;-65
2022/07/17 12:11:01;;;;;;;2.03;0.68;;;22.30;4.60;;;;;;5067720;28;20020;-64
2022/07/17 12:13:46;;;;;;;2.17;1.00;;;22.40;4.40;;;;;;5048304;28;20051;-64
2022/07/17 12:16:31;;;;;;;2.88;1.15;;;22.40;4.90;;;;;;5068635;28;20384;-64
2022/07/17 12:19:00;;;;;;;2.83;1.35;;;22.30;4.40;;;;;;5030269;28;20485;-64
2022/07/17 12:21:26;;;;;;;1.83;0.82;;;22.30;4.60;;;;;;5067895;28;20171;-64
2022/07/17 12:24:04;;;;;;;1.90;0.95;;;22.20;4.40;;;;;;5050412;28;20086;-64
2022/07/17 12:26:31;;;;;;;2.83;0.90;;;22.30;5.00;;;;;;5056249;28;20400;-64
2022/07/17 12:28:57;;;;;;;4.95;0.88;;;22.30;4.50;;;;;;5069597;28;20488;-64
2022/07/17 12:31:23;;;;;;;1.98;0.93;;;22.30;4.10;;;;;;5058954;28;20040;-64
2022/07/17 12:33:51;;;;;;;3.60;1.10;;;22.10;4.80;;;;;;5050154;28;20017;-64
2022/07/17 12:36:17;;;;;;;2.70;1.10;;;22.00;5.30;;;;;;5067140;28;20205;-64
2022/07/17 12:38:42;;;;;;;2.60;1.05;;;22.10;5.10;;;;;;5050232;28;20521;-64
2022/07/17 12:41:08;;;;;;;2.25;1.08;;;21.90;4.90;;;;;;5066898;28;20039;-64
2022/07/17 12:43:33;;;;;;;4.20;1.02;;;21.90;6.20;;;;;;5050028;28;20041;-64
2022/07/17 12:45:59;;;;;;;2.30;0.90;;;21.90;5.30;;;;;;5066883;28;20029;-65
2022/07/17 12:48:24;;;;;;;3.30;1.02;;;22.00;5.80;;;;;;5069458;28;20025;-64
2022/07/17 12:50:50;;;;;;;3.25;0.82;;;22.00;5.50;;;;;;5053732;28;20519;-64
2022/07/17 12:53:15;;;;;;;1.63;0.80;;;22.10;5.00;;;;;;5069373;28;20086;-64
2022/07/17 12:55:41;;;;;;;2.83;1.00;;;22.10;5.10;;;;;;5051847;28;20023;-65